Time;durP1;ratioP1;P1;durP2;ratioP2;P2;SDS_P1;SDS_P2;PMS_P1;PMS_P2;Temp;Humidity;BMP_temperature;BMP_pressure;BME280_temperature;BME280_humidity;BME280_pressure;Samples;Min_cycle;Max_cycle;Signal;HPM_P1;HPM_P2
2023/08/31 00:14:17;;;;;;;12.95;8.70;;;19.10;99.90;;;;;;5062715;28;20533;-85
2023/08/31 00:16:47;;;;;;;15.02;9.20;;;19.00;99.90;;;;;;5061489;27;20249;-85
2023/08/31 00:19:15;;;;;;;11.90;8.50;;;18.90;99.90;;;;;;5063042;28;20174;-85
2023/08/31 00:21:43;;;;;;;14.70;8.52;;;18.90;99.90;;;;;;5044711;27;20197;-85
2023/08/31 00:24:11;;;;;;;16.27;7.60;;;19.00;99.90;;;;;;5061542;28;20242;-85
2023/08/31 00:26:40;;;;;;;12.48;8.45;;;19.00;99.90;;;;;;5062366;28;20268;-84
2023/08/31 00:29:11;;;;;;;13.52;8.57;;;19.00;99.90;;;;;;5062719;28;20181;-85
2023/08/31 00:31:39;;;;;;;11.07;7.22;;;18.90;99.90;;;;;;5061205;28;20222;-85
2023/08/31 00:34:06;;;;;;;12.15;8.55;;;19.00;99.90;;;;;;5060996;28;20276;-85
2023/08/31 00:36:34;;;;;;;11.25;8.13;;;18.90;99.90;;;;;;5061135;28;20177;-84
2023/08/31 00:39:06;;;;;;;12.73;8.65;;;18.90;99.90;;;;;;5044451;28;20196;-85
2023/08/31 00:41:34;;;;;;;11.57;8.18;;;18.80;99.90;;;;;;5057188;28;20563;-85
2023/08/31 00:44:04;;;;;;;12.30;8.13;;;18.80;99.90;;;;;;5024656;28;20189;-86
2023/08/31 00:46:32;;;;;;;15.40;8.63;;;18.80;99.90;;;;;;5024876;28;20196;-86
2023/08/31 00:49:00;;;;;;;12.57;8.07;;;18.90;99.90;;;;;;5041210;28;20688;-85
2023/08/31 00:51:27;;;;;;;14.43;8.80;;;18.90;99.90;;;;;;5042162;28;20314;-86
2023/08/31 00:53:58;;;;;;;14.07;9.18;;;18.90;99.90;;;;;;5040817;28;20189;-86
2023/08/31 00:56:30;;;;;;;14.68;9.13;;;18.70;99.90;;;;;;5024489;28;20185;-86
2023/08/31 00:58:57;;;;;;;13.88;8.82;;;18.90;99.90;;;;;;5040678;28;20250;-86
2023/08/31 01:01:37;;;;;;;13.90;9.25;;;18.90;99.90;;;;;;5024314;28;20269;-86
2023/08/31 01:04:25;;;;;;;11.40;8.50;;;18.90;99.90;;;;;;5042188;28;20181;-86
2023/08/31 01:07:02;;;;;;;11.93;8.00;;;18.80;99.90;;;;;;5040998;28;20182;-85
2023/08/31 01:09:40;;;;;;;15.23;9.90;;;18.70;99.90;;;;;;5040811;27;20544;-86
2023/08/31 01:12:15;;;;;;;14.23;9.60;;;18.60;99.90;;;;;;5041928;28;20254;-86
2023/08/31 01:14:53;;;;;;;15.15;9.82;;;18.50;99.90;;;;;;5030578;28;20235;-85
2023/08/31 01:17:22;;;;;;;13.63;9.80;;;18.40;99.90;;;;;;5027259;28;20189;-85
2023/08/31 01:19:56;;;;;;;15.48;9.85;;;18.30;99.90;;;;;;5027152;28;20185;-85
2023/08/31 01:22:26;;;;;;;16.65;10.27;;;18.40;99.90;;;;;;5026934;28;20210;-85
2023/08/31 01:24:55;;;;;;;16.60;10.38;;;18.50;99.90;;;;;;5027213;28;20261;-86
2023/08/31 01:27:23;;;;;;;14.70;9.77;;;18.40;99.90;;;;;;5027248;28;20235;-85
2023/08/31 01:29:54;;;;;;;16.85;10.73;;;18.50;99.90;;;;;;5028330;28;20190;-85
2023/08/31 01:32:23;;;;;;;16.25;9.85;;;18.40;99.90;;;;;;5028631;28;20647;-86
2023/08/31 01:34:52;;;;;;;18.98;10.85;;;18.60;99.90;;;;;;5028289;28;20205;-85
2023/08/31 01:37:31;;;;;;;17.30;11.93;;;18.50;99.90;;;;;;5027028;28;20198;-85
2023/08/31 01:40:14;;;;;;;14.90;10.60;;;18.50;99.90;;;;;;5028180;28;20712;-85
2023/08/31 01:42:43;;;;;;;15.35;9.95;;;18.50;99.90;;;;;;5028054;28;20281;-85
2023/08/31 01:45:20;;;;;;;19.67;10.15;;;18.60;99.90;;;;;;5028191;28;20174;-85
2023/08/31 01:47:49;;;;;;;15.98;10.50;;;18.50;99.90;;;;;;5026718;28;20186;-85
2023/08/31 01:50:18;;;;;;;18.42;10.68;;;18.60;99.90;;;;;;5028062;28;20182;-85
2023/08/31 01:52:48;;;;;;;16.10;10.32;;;18.40;99.90;;;;;;5028179;28;20337;-85
2023/08/31 01:55:15;;;;;;;14.02;10.13;;;18.40;99.90;;;;;;5026856;28;20200;-85
2023/08/31 01:57:43;;;;;;;17.25;11.07;;;18.40;99.90;;;;;;5026740;28;20194;-86
2023/08/31 02:00:19;;;;;;;16.10;10.18;;;18.30;99.90;;;;;;5026600;28;20221;-85
2023/08/31 02:02:47;;;;;;;19.35;10.20;;;18.40;99.90;;;;;;5026690;28;20220;-85
2023/08/31 02:05:15;;;;;;;15.13;10.68;;;18.40;99.90;;;;;;5027862;28;20178;-84
2023/08/31 02:07:43;;;;;;;19.80;12.77;;;18.30;99.90;;;;;;5027905;28;20608;-85
2023/08/31 02:10:10;;;;;;;17.27;11.57;;;18.30;99.90;;;;;;5027887;28;20193;-85
2023/08/31 02:12:38;;;;;;;17.63;11.77;;;18.40;99.90;;;;;;5027563;28;20237;-85
2023/08/31 02:15:06;;;;;;;14.15;10.20;;;18.40;99.90;;;;;;5027874;28;20190;-85
2023/08/31 02:17:35;;;;;;;18.00;11.02;;;18.50;99.90;;;;;;5028073;28;20182;-85
2023/08/31 02:20:04;;;;;;;20.00;11.05;;;18.40;99.90;;;;;;5026458;28;20194;-85
2023/08/31 02:22:35;;;;;;;19.67;11.40;;;18.40;99.90;;;;;;5026232;28;20261;-85
2023/08/31 02:25:03;;;;;;;15.80;10.32;;;18.40;99.90;;;;;;5026928;28;20170;-85
2023/08/31 02:27:31;;;;;;;15.30;10.90;;;18.50;99.90;;;;;;5025736;28;20190;-85
2023/08/31 02:29:58;;;;;;;18.38;10.18;;;18.40;99.90;;;;;;5027449;28;20238;-85
2023/08/31 02:32:26;;;;;;;17.70;11.57;;;18.40;99.90;;;;;;5027351;28;20187;-85
2023/08/31 02:34:54;;;;;;;16.33;10.13;;;18.30;99.90;;;;;;5027481;28;20193;-85
2023/08/31 02:37:21;;;;;;;13.38;9.32;;;18.40;99.90;;;;;;5027658;28;20181;-85
2023/08/31 02:39:50;;;;;;;17.15;11.57;;;18.40;99.90;;;;;;5009872;28;20190;-85
2023/08/31 02:42:17;;;;;;;19.80;10.82;;;18.50;99.90;;;;;;5027185;28;20213;-85
2023/08/31 02:44:46;;;;;;;16.58;10.05;;;18.40;99.90;;;;;;5026004;28;20602;-85
2023/08/31 02:47:13;;;;;;;19.02;11.70;;;18.30;99.90;;;;;;5027074;28;20186;-85
2023/08/31 02:49:41;;;;;;;19.65;11.63;;;18.40;99.90;;;;;;5027286;28;20294;-85
2023/08/31 02:52:08;;;;;;;14.43;9.95;;;18.20;99.90;;;;;;5027016;28;20182;-85
2023/08/31 02:54:36;;;;;;;14.20;9.77;;;18.20;99.90;;;;;;5025816;28;20186;-85
2023/08/31 02:57:04;;;;;;;15.65;10.05;;;18.30;99.90;;;;;;5027099;28;20190;-85
2023/08/31 02:59:35;;;;;;;15.35;10.23;;;18.20;99.90;;;;;;5025726;28;20556;-85
2023/08/31 03:02:04;;;;;;;14.90;9.77;;;18.40;99.90;;;;;;5025675;28;20186;-85
2023/08/31 03:04:32;;;;;;;16.52;10.80;;;18.30;99.90;;;;;;5025465;28;20233;-85
2023/08/31 03:06:59;;;;;;;18.13;11.10;;;18.20;99.90;;;;;;5025451;28;20198;-86
2023/08/31 03:09:27;;;;;;;16.33;10.60;;;18.20;99.90;;;;;;5028105;28;20181;-85
2023/08/31 03:11:54;;;;;;;20.20;11.70;;;18.30;99.90;;;;;;5035924;28;20185;-85
2023/08/31 03:14:23;;;;;;;16.90;10.98;;;18.20;99.90;;;;;;5044820;28;20623;-85
2023/08/31 03:16:50;;;;;;;20.10;12.25;;;18.10;99.90;;;;;;5025300;28;20182;-84
2023/08/31 03:19:18;;;;;;;18.50;10.82;;;18.10;99.90;;;;;;5041852;28;20190;-85
2023/08/31 03:21:45;;;;;;;18.33;10.43;;;18.20;99.90;;;;;;5025709;28;20225;-85
2023/08/31 03:24:14;;;;;;;14.32;10.07;;;18.20;99.90;;;;;;5045181;28;20209;-85
2023/08/31 03:26:42;;;;;;;17.63;10.00;;;18.10;99.90;;;;;;5114656;27;20735;-85
2023/08/31 03:29:09;;;;;;;16.02;9.85;;;18.20;99.90;;;;;;5028739;28;20188;-85
2023/08/31 03:31:38;;;;;;;15.27;9.60;;;18.20;99.90;;;;;;5045147;28;20216;-86
2023/08/31 03:34:05;;;;;;;13.95;9.18;;;18.20;99.90;;;;;;5044967;28;20204;-85
2023/08/31 03:36:33;;;;;;;15.52;10.13;;;18.20;99.90;;;;;;5028127;28;20204;-85
2023/08/31 03:39:01;;;;;;;15.93;10.77;;;18.20;99.90;;;;;;5028683;28;20674;-86
2023/08/31 03:41:29;;;;;;;16.38;9.77;;;18.10;99.90;;;;;;5045088;28;20285;-85
2023/08/31 03:43:58;;;;;;;15.57;9.48;;;18.20;99.90;;;;;;5045079;28;20217;-85
2023/08/31 03:46:26;;;;;;;15.07;10.13;;;18.30;99.90;;;;;;5044938;28;20178;-85
2023/08/31 03:48:54;;;;;;;15.43;9.95;;;18.20;99.90;;;;;;5115070;27;20196;-85
2023/08/31 03:51:21;;;;;;;19.10;11.57;;;18.30;99.90;;;;;;5044857;28;20197;-84
2023/08/31 03:53:49;;;;;;;15.00;10.23;;;18.30;99.90;;;;;;5044873;27;20193;-84
2023/08/31 03:56:17;;;;;;;18.33;11.25;;;18.30;99.90;;;;;;5044839;28;20185;-85
2023/08/31 03:58:45;;;;;;;14.55;9.48;;;18.20;99.90;;;;;;5028315;28;20195;-84
2023/08/31 04:01:14;;;;;;;16.48;10.55;;;18.20;99.90;;;;;;5044886;28;20204;-85
2023/08/31 04:03:45;;;;;;;17.40;9.15;;;18.30;99.90;;;;;;5044757;28;20327;-84
2023/08/31 04:06:12;;;;;;;16.33;11.45;;;18.30;99.90;;;;;;5044651;28;20558;-85
2023/08/31 04:08:40;;;;;;;16.38;10.68;;;18.30;99.90;;;;;;5046030;28;20261;-85
2023/08/31 04:11:08;;;;;;;15.18;9.27;;;18.30;99.90;;;;;;5113956;28;20194;-86
2023/08/31 04:13:35;;;;;;;16.65;9.95;;;18.40;99.90;;;;;;5044347;28;20621;-85
2023/08/31 04:16:03;;;;;;;15.40;10.68;;;18.40;99.90;;;;;;5044334;28;20670;-85
2023/08/31 04:18:31;;;;;;;14.82;9.68;;;18.40;99.90;;;;;;5028033;28;20212;-85
2023/08/31 04:21:00;;;;;;;17.48;10.85;;;18.40;99.90;;;;;;5044538;28;20192;-85
2023/08/31 04:23:28;;;;;;;19.50;10.55;;;18.40;99.90;;;;;;5045630;28;20205;-84
2023/08/31 04:25:57;;;;;;;14.25;9.73;;;18.40;99.90;;;;;;5046210;28;20943;-85
2023/08/31 04:28:25;;;;;;;15.55;10.15;;;18.40;99.90;;;;;;5045004;28;20185;-86
2023/08/31 04:30:53;;;;;;;13.63;9.27;;;18.40;99.90;;;;;;5046653;28;20714;-85
2023/08/31 04:33:20;;;;;;;16.50;10.35;;;18.40;99.90;;;;;;5046041;28;20191;-85
2023/08/31 04:35:49;;;;;;;16.33;10.68;;;18.40;99.90;;;;;;5044577;28;20185;-85
2023/08/31 04:38:17;;;;;;;16.13;9.65;;;18.40;99.90;;;;;;5044357;28;20196;-85
2023/08/31 04:40:45;;;;;;;14.80;9.70;;;18.30;99.90;;;;;;5041573;28;20254;-84
2023/08/31 04:43:13;;;;;;;15.68;10.20;;;18.30;99.90;;;;;;5026245;28;20211;-85
2023/08/31 04:45:41;;;;;;;15.80;9.98;;;18.20;99.90;;;;;;5034306;28;20276;-84
2023/08/31 04:48:09;;;;;;;13.05;9.60;;;18.30;99.90;;;;;;5041280;28;20693;-84
2023/08/31 04:50:36;;;;;;;13.40;9.57;;;18.30;99.90;;;;;;5037864;28;20192;-85
2023/08/31 04:53:04;;;;;;;16.58;10.77;;;18.40;99.90;;;;;;5037069;28;20297;-84
2023/08/31 04:55:32;;;;;;;14.30;9.85;;;18.30;99.90;;;;;;5035819;28;20191;-84
2023/08/31 04:57:59;;;;;;;16.15;9.38;;;18.30;99.90;;;;;;5038675;28;20332;-85
2023/08/31 05:00:27;;;;;;;16.25;9.50;;;18.30;99.90;;;;;;5036571;28;20198;-85
2023/08/31 05:02:54;;;;;;;14.43;9.60;;;18.30;99.90;;;;;;5039655;28;20213;-85
2023/08/31 05:05:22;;;;;;;14.38;9.32;;;18.30;99.90;;;;;;5033665;28;20198;-84
2023/08/31 05:07:50;;;;;;;14.35;9.63;;;18.40;99.90;;;;;;5041629;28;20188;-84
2023/08/31 05:10:17;;;;;;;15.15;9.23;;;18.30;99.90;;;;;;5027731;28;20305;-85
2023/08/31 05:12:45;;;;;;;13.77;8.63;;;18.30;99.90;;;;;;5035941;28;20575;-84
2023/08/31 05:15:12;;;;;;;13.30;8.80;;;18.30;99.90;;;;;;5039853;28;20198;-84
2023/08/31 05:17:40;;;;;;;15.20;10.00;;;18.20;99.90;;;;;;5039192;28;20300;-85
2023/08/31 05:20:09;;;;;;;14.13;8.70;;;18.30;99.90;;;;;;5033018;28;20732;-84
2023/08/31 05:22:37;;;;;;;13.07;8.43;;;18.30;99.90;;;;;;5041138;28;20793;-85
2023/08/31 05:25:05;;;;;;;13.63;9.10;;;18.30;99.90;;;;;;5035342;28;20216;-85
2023/08/31 05:27:33;;;;;;;12.98;8.15;;;18.20;99.90;;;;;;5035828;28;20186;-84
2023/08/31 05:30:00;;;;;;;13.63;8.65;;;18.30;99.90;;;;;;5036429;28;20197;-85
2023/08/31 05:32:29;;;;;;;13.07;8.55;;;18.20;99.90;;;;;;5043450;28;20185;-85
2023/08/31 05:34:59;;;;;;;11.50;8.63;;;18.20;99.90;;;;;;5040747;28;20234;-86
2023/08/31 05:37:31;;;;;;;14.55;9.27;;;18.20;99.90;;;;;;5035335;28;20190;-85
2023/08/31 05:39:59;;;;;;;10.70;7.30;;;18.30;99.90;;;;;;5033705;27;20242;-84
2023/08/31 05:42:26;;;;;;;13.15;7.68;;;18.30;99.90;;;;;;5036791;28;20647;-83
2023/08/31 05:44:54;;;;;;;11.50;7.25;;;18.30;99.90;;;;;;5038282;28;20224;-84
2023/08/31 05:47:21;;;;;;;13.98;8.25;;;18.30;99.90;;;;;;5037128;27;20190;-85
2023/08/31 05:49:49;;;;;;;14.40;8.07;;;18.30;99.90;;;;;;5039735;28;20211;-85
2023/08/31 05:52:16;;;;;;;12.98;7.75;;;18.30;99.90;;;;;;5035861;28;20224;-85
2023/08/31 05:54:44;;;;;;;12.68;8.25;;;18.30;99.90;;;;;;5033454;28;20655;-85
2023/08/31 05:57:11;;;;;;;10.65;6.93;;;18.30;99.90;;;;;;5038482;28;20182;-84
2023/08/31 05:59:39;;;;;;;10.45;7.20;;;18.30;99.90;;;;;;5043475;28;20181;-84
2023/08/31 06:02:08;;;;;;;10.32;7.13;;;18.30;99.90;;;;;;5035514;28;20185;-84
2023/08/31 06:04:37;;;;;;;10.18;6.65;;;18.30;99.90;;;;;;5036339;28;20202;-84
2023/08/31 06:07:04;;;;;;;9.20;6.32;;;18.30;99.90;;;;;;5035686;28;20192;-83
2023/08/31 06:09:32;;;;;;;9.65;6.43;;;18.20;99.90;;;;;;5040606;28;20197;-84
2023/08/31 06:11:59;;;;;;;10.10;6.70;;;18.20;99.90;;;;;;5041222;28;20189;-84
2023/08/31 06:14:27;;;;;;;13.35;7.03;;;18.10;99.90;;;;;;5037214;27;20292;-83
2023/08/31 06:16:54;;;;;;;9.38;5.72;;;18.10;99.90;;;;;;5035679;28;20209;-85
2023/08/31 06:19:22;;;;;;;8.40;5.75;;;18.20;99.90;;;;;;5033655;28;20579;-86
2023/08/31 06:21:49;;;;;;;8.38;4.70;;;18.20;99.90;;;;;;5041546;28;20288;-85
2023/08/31 06:24:17;;;;;;;6.80;4.70;;;18.20;99.90;;;;;;5034532;28;20205;-85
2023/08/31 06:26:44;;;;;;;8.95;4.60;;;18.10;99.90;;;;;;5026332;28;20238;-84
2023/08/31 06:29:12;;;;;;;7.18;4.75;;;18.20;99.90;;;;;;5040239;28;20273;-85
2023/08/31 06:31:42;;;;;;;5.15;3.88;;;18.20;99.90;;;;;;5034886;28;20710;-85
2023/08/31 06:34:10;;;;;;;4.55;3.60;;;18.20;99.90;;;;;;5039984;27;20276;-84
2023/08/31 06:36:38;;;;;;;6.72;3.20;;;18.10;99.90;;;;;;5037613;28;20189;-85
2023/08/31 06:39:07;;;;;;;3.53;2.70;;;18.20;99.90;;;;;;5038288;28;20213;-85
2023/08/31 06:41:35;;;;;;;4.35;2.92;;;18.20;99.90;;;;;;5032335;28;20239;-85
2023/08/31 06:44:04;;;;;;;5.47;2.78;;;18.30;99.90;;;;;;5039391;28;20275;-86
2023/08/31 06:46:37;;;;;;;4.72;2.83;;;18.30;99.90;;;;;;5031536;28;20186;-85
2023/08/31 06:49:05;;;;;;;6.55;2.88;;;18.20;99.90;;;;;;5029206;28;20220;-84
2023/08/31 06:51:33;;;;;;;3.33;2.35;;;18.20;99.90;;;;;;5037412;28;20262;-84
2023/08/31 06:54:07;;;;;;;4.32;3.20;;;18.20;99.90;;;;;;5037975;27;20224;-86
2023/08/31 06:56:35;;;;;;;6.22;2.65;;;18.20;99.90;;;;;;5036662;28;20197;-84
2023/08/31 06:59:03;;;;;;;7.50;2.65;;;18.10;99.90;;;;;;5033606;28;20759;-84
2023/08/31 07:01:32;;;;;;;4.35;2.33;;;18.00;99.90;;;;;;5040382;28;20607;-84
2023/08/31 07:04:00;;;;;;;3.70;2.50;;;18.00;99.90;;;;;;5043106;28;20224;-84
2023/08/31 07:06:27;;;;;;;4.75;2.55;;;18.10;99.90;;;;;;5025655;28;20207;-89
2023/08/31 07:08:55;;;;;;;3.10;2.28;;;18.00;99.90;;;;;;5035785;28;20188;-84
2023/08/31 07:11:22;;;;;;;3.25;2.40;;;18.00;99.90;;;;;;5039843;28;20205;-86
2023/08/31 07:13:50;;;;;;;4.80;2.65;;;18.00;99.90;;;;;;5034628;28;20696;-87
2023/08/31 07:16:18;;;;;;;3.88;2.50;;;18.10;99.90;;;;;;5036921;28;20288;-86
2023/08/31 07:18:45;;;;;;;3.22;2.17;;;18.10;99.90;;;;;;5020847;28;20596;-86
2023/08/31 07:21:13;;;;;;;6.22;3.13;;;18.10;99.90;;;;;;5035642;28;20193;-86
2023/08/31 07:23:41;;;;;;;4.03;3.13;;;18.00;99.90;;;;;;5019571;28;20300;-84
2023/08/31 07:26:08;;;;;;;3.60;2.83;;;18.10;99.90;;;;;;5036092;28;20226;-83
2023/08/31 07:28:36;;;;;;;4.25;3.05;;;18.10;99.90;;;;;;5040357;28;20185;-87
2023/08/31 07:31:05;;;;;;;3.65;2.83;;;18.00;99.90;;;;;;5040367;28;20592;-85
2023/08/31 07:33:34;;;;;;;4.00;2.80;;;18.00;99.90;;;;;;5036202;27;20190;-87
2023/08/31 07:36:04;;;;;;;6.47;3.00;;;18.10;99.90;;;;;;5034567;28;20620;-85
2023/08/31 07:38:32;;;;;;;4.43;2.75;;;18.20;99.90;;;;;;5034703;28;20272;-84
2023/08/31 07:41:00;;;;;;;5.93;3.25;;;18.20;99.90;;;;;;5029213;28;20190;-86
2023/08/31 07:43:28;;;;;;;4.60;3.08;;;18.30;99.90;;;;;;5029143;28;20205;-86
2023/08/31 07:45:55;;;;;;;5.68;3.08;;;18.30;99.90;;;;;;5034178;28;20213;-88
2023/08/31 07:48:23;;;;;;;4.85;2.85;;;18.30;99.90;;;;;;5038772;28;20659;-87
2023/08/31 07:50:51;;;;;;;4.85;3.13;;;18.20;99.90;;;;;;5043199;28;20193;-86
2023/08/31 07:53:19;;;;;;;4.90;3.45;;;18.20;99.90;;;;;;5016172;28;20280;-87
2023/08/31 07:55:59;;;;;;;4.07;3.00;;;18.20;99.90;;;;;;5035273;28;20195;-88
2023/08/31 07:58:26;;;;;;;4.22;3.05;;;18.20;99.90;;;;;;5037683;28;20181;-87
2023/08/31 08:00:56;;;;;;;4.03;2.95;;;18.20;99.90;;;;;;5040610;28;20228;-87
2023/08/31 08:03:24;;;;;;;5.97;3.28;;;18.20;99.90;;;;;;5035249;28;20201;-88
2023/08/31 08:05:56;;;;;;;6.10;3.15;;;18.20;99.90;;;;;;5037527;28;20663;-87
2023/08/31 08:08:25;;;;;;;5.05;3.30;;;18.20;99.90;;;;;;5035505;28;20253;-87
2023/08/31 08:10:53;;;;;;;11.70;3.40;;;18.20;99.90;;;;;;5039366;28;20185;-87
2023/08/31 08:13:22;;;;;;;4.63;3.05;;;18.10;99.90;;;;;;5036417;28;20232;-86
2023/08/31 08:15:52;;;;;;;9.60;3.20;;;18.20;99.90;;;;;;5032175;28;20698;-87
2023/08/31 08:18:19;;;;;;;5.13;3.00;;;18.20;99.90;;;;;;5041506;28;20198;-86
2023/08/31 08:20:49;;;;;;;6.32;3.00;;;18.20;99.90;;;;;;5038633;28;20194;-87
2023/08/31 08:23:16;;;;;;;5.75;3.55;;;18.20;99.90;;;;;;5033930;28;20197;-87
2023/08/31 08:25:44;;;;;;;4.13;3.35;;;18.20;99.90;;;;;;5037313;28;20217;-88
2023/08/31 08:28:11;;;;;;;5.55;3.20;;;18.20;99.90;;;;;;5020626;28;20719;-88
2023/08/31 08:30:39;;;;;;;4.97;2.60;;;18.20;99.90;;;;;;5039569;28;20955;-87
2023/08/31 08:33:08;;;;;;;5.25;3.20;;;18.20;99.90;;;;;;5031101;28;20652;-87
2023/08/31 08:35:38;;;;;;;5.32;3.33;;;18.20;99.90;;;;;;5023253;28;20182;-87
2023/08/31 08:38:05;;;;;;;5.55;2.83;;;18.20;99.90;;;;;;5017533;28;20220;-87
2023/08/31 08:40:34;;;;;;;5.38;3.20;;;18.30;99.90;;;;;;5026415;28;20231;-87
2023/08/31 08:43:03;;;;;;;5.53;3.17;;;18.30;99.90;;;;;;5043151;28;20216;-88
2023/08/31 08:45:37;;;;;;;6.63;3.30;;;18.20;99.90;;;;;;5036081;28;20209;-87
2023/08/31 08:48:08;;;;;;;5.60;3.88;;;18.20;99.90;;;;;;5039718;28;20518;-86
2023/08/31 08:50:37;;;;;;;5.03;3.60;;;18.20;99.90;;;;;;5037940;28;20190;-87
2023/08/31 08:53:05;;;;;;;4.97;3.65;;;18.20;99.90;;;;;;5047656;28;20799;-88
2023/08/31 08:55:33;;;;;;;7.03;3.30;;;18.30;99.90;;;;;;5040209;28;20221;-87
2023/08/31 08:58:01;;;;;;;6.68;3.33;;;18.30;99.90;;;;;;5014678;28;20229;-87
2023/08/31 09:00:29;;;;;;;4.95;3.58;;;18.30;99.90;;;;;;5021085;28;20382;-86
2023/08/31 09:02:58;;;;;;;5.65;3.15;;;18.30;99.90;;;;;;5042532;28;20215;-87
2023/08/31 09:05:33;;;;;;;7.28;3.60;;;18.40;99.90;;;;;;5041385;28;20201;-87
2023/08/31 09:08:05;;;;;;;9.77;3.42;;;18.40;99.90;;;;;;5041909;28;20229;-87
2023/08/31 09:10:37;;;;;;;5.30;3.38;;;18.40;99.90;;;;;;5033384;28;20566;-89
2023/08/31 09:13:09;;;;;;;5.20;3.10;;;18.50;99.90;;;;;;5037977;28;20592;-88
2023/08/31 09:15:57;;;;;;;6.07;3.53;;;18.50;99.90;;;;;;5035781;28;20193;-88
2023/08/31 09:18:27;;;;;;;6.10;3.47;;;18.50;99.90;;;;;;5031406;27;20209;-87
2023/08/31 09:20:58;;;;;;;6.03;3.33;;;18.50;99.90;;;;;;5039884;28;20204;-88
2023/08/31 09:23:27;;;;;;;4.65;3.17;;;18.60;99.90;;;;;;5038822;28;20198;-88
2023/08/31 09:25:55;;;;;;;7.57;3.25;;;18.60;99.90;;;;;;5036888;28;20259;-88
2023/08/31 09:28:28;;;;;;;5.20;3.47;;;18.70;99.90;;;;;;5038139;28;20246;-88
2023/08/31 09:31:08;;;;;;;5.53;3.40;;;18.70;99.90;;;;;;5019856;28;20197;-87
2023/08/31 09:33:36;;;;;;;6.72;3.83;;;18.70;99.90;;;;;;5044971;28;20181;-88
2023/08/31 09:36:07;;;;;;;7.80;3.40;;;18.70;99.90;;;;;;5035525;28;20197;-88
2023/08/31 09:38:43;;;;;;;4.45;3.55;;;18.70;99.90;;;;;;5040548;28;20213;-88
2023/08/31 09:41:11;;;;;;;5.47;3.40;;;18.70;99.90;;;;;;5013821;28;20189;-88
2023/08/31 09:43:39;;;;;;;5.80;3.55;;;18.80;99.90;;;;;;5038384;28;20194;-85
2023/08/31 09:46:08;;;;;;;6.07;3.45;;;18.80;99.90;;;;;;5035374;28;20217;-90
2023/08/31 09:48:38;;;;;;;6.00;3.45;;;18.90;99.90;;;;;;5032129;28;20221;-89
2023/08/31 09:51:07;;;;;;;5.47;3.20;;;18.90;99.90;;;;;;5020332;28;20635;-89
2023/08/31 09:53:37;;;;;;;5.07;3.28;;;18.90;99.90;;;;;;5080367;28;20182;-89
2023/08/31 09:56:06;;;;;;;6.05;3.22;;;18.90;99.90;;;;;;5046335;28;20281;-91
2023/08/31 09:58:34;;;;;;;3.45;2.60;;;19.00;99.90;;;;;;5034393;28;20586;-90
2023/08/31 10:01:02;;;;;;;4.95;3.30;;;19.00;99.90;;;;;;5039551;28;20194;-90
2023/08/31 10:03:40;;;;;;;8.00;3.65;;;19.10;99.90;;;;;;5042372;28;20232;-89
2023/08/31 10:06:09;;;;;;;5.38;3.00;;;19.10;99.90;;;;;;5044047;28;20210;-89
2023/08/31 10:08:39;;;;;;;6.80;2.95;;;19.10;99.90;;;;;;5032264;28;20190;-89
2023/08/31 10:11:09;;;;;;;7.18;2.80;;;19.10;99.90;;;;;;5041758;28;20189;-89
2023/08/31 10:13:40;;;;;;;3.63;2.63;;;19.10;99.90;;;;;;5047427;28;20213;-90
2023/08/31 10:16:08;;;;;;;2.90;2.38;;;19.10;99.90;;;;;;5047766;28;20208;-89
2023/08/31 10:18:36;;;;;;;3.95;2.88;;;19.10;99.90;;;;;;5049007;28;20189;-88
2023/08/31 10:21:04;;;;;;;5.60;2.78;;;19.10;99.90;;;;;;5046726;28;20232;-88
2023/08/31 10:23:32;;;;;;;5.82;2.63;;;19.10;99.90;;;;;;5035034;28;20202;-90
2023/08/31 10:26:00;;;;;;;3.58;2.90;;;19.00;99.90;;;;;;5043664;28;20252;-90
2023/08/31 10:28:28;;;;;;;4.63;2.70;;;19.10;99.90;;;;;;5082173;28;20202;-87
2023/08/31 10:31:03;;;;;;;5.40;2.65;;;19.10;99.90;;;;;;5016475;28;20185;-90
2023/08/31 10:33:41;;;;;;;5.55;2.65;;;19.20;99.90;;;;;;5026364;28;20193;-86
2023/08/31 10:36:19;;;;;;;4.15;2.55;;;19.20;99.90;;;;;;5035277;28;20185;-85
2023/08/31 10:38:56;;;;;;;6.25;2.83;;;19.20;99.90;;;;;;5031653;28;20270;-85
2023/08/31 10:41:25;;;;;;;6.20;3.30;;;19.10;99.90;;;;;;5044347;28;20194;-86
2023/08/31 10:43:57;;;;;;;3.15;2.65;;;19.10;99.90;;;;;;5034816;28;20190;-87
2023/08/31 10:46:32;;;;;;;3.92;3.35;;;19.10;99.90;;;;;;5034095;28;20229;-87
2023/08/31 10:49:09;;;;;;;5.00;2.83;;;19.10;99.90;;;;;;5036266;28;20185;-87
2023/08/31 10:51:39;;;;;;;4.38;3.33;;;19.10;99.90;;;;;;5028159;28;20186;-87
2023/08/31 10:54:34;;;;;;;7.05;3.38;;;19.10;99.90;;;;;;5039949;28;20228;-88
2023/08/31 10:57:07;;;;;;;5.18;3.10;;;19.10;99.90;;;;;;5039452;28;20209;-85
2023/08/31 10:59:51;;;;;;;5.75;3.33;;;19.10;99.90;;;;;;5034911;28;20833;-87
2023/08/31 11:02:31;;;;;;;5.45;3.60;;;19.20;99.90;;;;;;5029173;28;20702;-86
2023/08/31 11:05:09;;;;;;;4.13;2.92;;;19.10;99.90;;;;;;5041040;28;20282;-88
2023/08/31 11:07:57;;;;;;;4.72;3.00;;;19.10;99.90;;;;;;5036161;28;20186;-87
2023/08/31 11:10:29;;;;;;;9.75;3.47;;;19.20;99.90;;;;;;5035771;28;20216;-88
2023/08/31 11:12:57;;;;;;;7.70;3.20;;;19.30;99.90;;;;;;5032760;28;20229;-85
2023/08/31 11:15:34;;;;;;;4.38;3.45;;;19.40;99.90;;;;;;5029905;28;20221;-87
2023/08/31 11:18:02;;;;;;;7.97;3.88;;;19.60;99.90;;;;;;5035147;28;20260;-86
2023/08/31 11:20:31;;;;;;;5.78;3.78;;;19.70;99.90;;;;;;5041613;28;20190;-86
2023/08/31 11:22:58;;;;;;;5.18;3.10;;;19.90;99.90;;;;;;5037325;28;20834;-85
2023/08/31 11:25:30;;;;;;;5.95;2.95;;;20.00;99.90;;;;;;5019475;28;20245;-85
2023/08/31 11:27:59;;;;;;;3.97;2.97;;;20.00;99.90;;;;;;5033168;28;20186;-85
2023/08/31 11:30:32;;;;;;;6.38;3.05;;;20.00;99.90;;;;;;5031333;28;20188;-84
2023/08/31 11:33:04;;;;;;;4.00;3.05;;;20.00;99.90;;;;;;5031314;28;20268;-85
2023/08/31 11:35:39;;;;;;;7.68;3.20;;;19.90;99.90;;;;;;5036733;28;20727;-85
2023/08/31 11:38:07;;;;;;;6.50;3.20;;;19.80;99.90;;;;;;5034961;28;20249;-85
2023/08/31 11:40:37;;;;;;;4.65;3.20;;;19.80;99.90;;;;;;5038901;28;20185;-86
2023/08/31 11:43:06;;;;;;;4.47;3.10;;;19.80;99.90;;;;;;5034777;28;20229;-85
2023/08/31 11:45:36;;;;;;;4.18;3.20;;;19.80;99.90;;;;;;5035972;28;20452;-84
2023/08/31 11:48:05;;;;;;;4.18;3.25;;;19.80;99.90;;;;;;5036671;28;20235;-87
2023/08/31 11:50:33;;;;;;;4.28;3.60;;;19.90;99.90;;;;;;5029554;28;20198;-86
2023/08/31 11:53:00;;;;;;;6.72;3.50;;;20.00;99.90;;;;;;5036300;28;20189;-86
2023/08/31 11:55:28;;;;;;;4.88;3.38;;;20.00;99.90;;;;;;5035217;28;20197;-86
2023/08/31 11:57:56;;;;;;;5.32;2.88;;;20.10;99.90;;;;;;5038158;28;20281;-86
2023/08/31 12:00:24;;;;;;;4.70;3.00;;;20.10;99.90;;;;;;5037479;28;20193;-85
2023/08/31 12:03:01;;;;;;;3.88;3.00;;;20.10;99.90;;;;;;5031160;28;20197;-85
2023/08/31 12:05:31;;;;;;;5.40;2.85;;;20.10;99.90;;;;;;5029103;28;20712;-86
2023/08/31 12:07:59;;;;;;;3.15;2.22;;;20.10;99.90;;;;;;5020139;28;20193;-85
2023/08/31 12:10:27;;;;;;;5.18;2.83;;;20.10;99.90;;;;;;5035287;28;20186;-86
2023/08/31 12:13:07;;;;;;;6.95;2.55;;;20.10;99.90;;;;;;5028759;28;20902;-85
2023/08/31 12:15:35;;;;;;;4.30;2.65;;;20.00;99.90;;;;;;5037146;28;20189;-86
2023/08/31 12:18:10;;;;;;;5.28;2.78;;;20.00;99.90;;;;;;5032253;28;20201;-85
2023/08/31 12:20:57;;;;;;;5.13;2.83;;;20.00;99.90;;;;;;5037619;28;20196;-86
2023/08/31 12:23:25;;;;;;;5.82;2.78;;;20.00;99.90;;;;;;5036314;28;20185;-86
2023/08/31 12:25:54;;;;;;;4.50;2.83;;;20.00;99.90;;;;;;5036104;28;20722;-85
2023/08/31 12:28:23;;;;;;;5.95;2.42;;;20.00;99.90;;;;;;5035262;28;20185;-86
2023/08/31 12:30:52;;;;;;;5.82;3.08;;;20.00;99.90;;;;;;5034391;28;20197;-87
2023/08/31 12:33:20;;;;;;;6.05;2.38;;;20.00;99.90;;;;;;5035386;28;20667;-85
2023/08/31 12:35:49;;;;;;;6.03;2.95;;;20.00;99.90;;;;;;5035069;28;20193;-87
2023/08/31 12:38:18;;;;;;;6.57;2.85;;;20.10;99.90;;;;;;5037911;28;20280;-86
2023/08/31 12:40:46;;;;;;;4.00;2.33;;;20.20;99.90;;;;;;5010950;28;20194;-85
2023/08/31 12:43:16;;;;;;;3.75;2.35;;;20.20;99.90;;;;;;5033319;28;20194;-85
2023/08/31 12:45:44;;;;;;;4.60;2.50;;;20.20;99.90;;;;;;5035897;28;20257;-87
2023/08/31 12:48:12;;;;;;;5.68;2.85;;;20.30;99.90;;;;;;5035837;28;20217;-86
2023/08/31 12:50:39;;;;;;;5.25;2.63;;;20.30;99.90;;;;;;5032838;28;20609;-85
2023/08/31 12:53:07;;;;;;;5.55;3.03;;;20.30;99.90;;;;;;5037038;28;20189;-86
2023/08/31 12:55:35;;;;;;;5.55;2.67;;;20.30;99.90;;;;;;5040667;28;20409;-86
2023/08/31 12:58:02;;;;;;;6.13;2.72;;;20.30;99.90;;;;;;5029565;28;20246;-85
2023/08/31 13:00:30;;;;;;;3.72;2.47;;;20.20;99.90;;;;;;5035161;28;20196;-85
2023/08/31 13:02:57;;;;;;;4.65;2.00;;;20.20;99.90;;;;;;5033614;28;20675;-85
2023/08/31 13:05:25;;;;;;;4.57;3.15;;;20.10;99.90;;;;;;5029082;28;20247;-84